sensor_id;sensor_type;location;lat;lon;timestamp;P1;durP1;ratioP1;P2;durP2;ratioP2
16979;SDS011;42288;52.182;21.156;2023-04-25T00:01:35;13.03;;;9.17;;
16979;SDS011;42288;52.182;21.156;2023-04-25T00:04:02;17.50;;;10.63;;
16979;SDS011;42288;52.182;21.156;2023-04-25T00:06:28;12.93;;;9.33;;
16979;SDS011;42288;52.182;21.156;2023-04-25T00:08:55;13.10;;;9.47;;
16979;SDS011;42288;52.182;21.156;2023-04-25T00:11:21;13.37;;;8.70;;
16979;SDS011;42288;52.182;21.156;2023-04-25T00:13:47;10.63;;;8.73;;
16979;SDS011;42288;52.182;21.156;2023-04-25T00:16:14;13.80;;;8.57;;
16979;SDS011;42288;52.182;21.156;2023-04-25T00:18:41;13.17;;;8.97;;
16979;SDS011;42288;52.182;21.156;2023-04-25T00:21:07;13.80;;;8.43;;
16979;SDS011;42288;52.182;21.156;2023-04-25T00:23:33;16.30;;;10.97;;
16979;SDS011;42288;52.182;21.156;2023-04-25T00:26:00;21.20;;;13.10;;
16979;SDS011;42288;52.182;21.156;2023-04-25T00:28:26;17.17;;;10.97;;
16979;SDS011;42288;52.182;21.156;2023-04-25T00:30:51;18.90;;;12.47;;
16979;SDS011;42288;52.182;21.156;2023-04-25T00:33:17;15.13;;;11.83;;
16979;SDS011;42288;52.182;21.156;2023-04-25T00:35:43;17.43;;;12.37;;
16979;SDS011;42288;52.182;21.156;2023-04-25T00:38:08;14.40;;;10.30;;
16979;SDS011;42288;52.182;21.156;2023-04-25T00:40:34;17.50;;;11.17;;
16979;SDS011;42288;52.182;21.156;2023-04-25T00:43:00;17.20;;;11.20;;
16979;SDS011;42288;52.182;21.156;2023-04-25T00:45:28;12.60;;;9.30;;
16979;SDS011;42288;52.182;21.156;2023-04-25T00:47:54;13.87;;;9.97;;
16979;SDS011;42288;52.182;21.156;2023-04-25T00:50:21;12.63;;;9.20;;
16979;SDS011;42288;52.182;21.156;2023-04-25T00:52:46;16.67;;;10.67;;
16979;SDS011;42288;52.182;21.156;2023-04-25T00:55:12;13.73;;;10.20;;
16979;SDS011;42288;52.182;21.156;2023-04-25T00:57:39;17.67;;;12.13;;
16979;SDS011;42288;52.182;21.156;2023-04-25T01:00:05;12.93;;;10.03;;
16979;SDS011;42288;52.182;21.156;2023-04-25T01:02:32;15.43;;;10.00;;
16979;SDS011;42288;52.182;21.156;2023-04-25T01:04:58;14.97;;;10.00;;
16979;SDS011;42288;52.182;21.156;2023-04-25T01:07:24;14.57;;;10.30;;
16979;SDS011;42288;52.182;21.156;2023-04-25T01:09:53;14.47;;;10.33;;
16979;SDS011;42288;52.182;21.156;2023-04-25T01:12:19;14.17;;;11.20;;
16979;SDS011;42288;52.182;21.156;2023-04-25T01:14:45;16.40;;;11.60;;
16979;SDS011;42288;52.182;21.156;2023-04-25T01:17:11;19.00;;;12.00;;
16979;SDS011;42288;52.182;21.156;2023-04-25T01:19:37;18.67;;;11.57;;
16979;SDS011;42288;52.182;21.156;2023-04-25T01:22:03;18.83;;;12.53;;
16979;SDS011;42288;52.182;21.156;2023-04-25T01:24:29;22.90;;;14.87;;
16979;SDS011;42288;52.182;21.156;2023-04-25T01:26:56;12.90;;;10.63;;
16979;SDS011;42288;52.182;21.156;2023-04-25T01:29:25;17.70;;;12.20;;
16979;SDS011;42288;52.182;21.156;2023-04-25T01:31:52;16.10;;;11.50;;
16979;SDS011;42288;52.182;21.156;2023-04-25T01:34:17;19.83;;;12.63;;
16979;SDS011;42288;52.182;21.156;2023-04-25T01:36:43;16.33;;;11.83;;
16979;SDS011;42288;52.182;21.156;2023-04-25T01:39:09;18.53;;;12.53;;
16979;SDS011;42288;52.182;21.156;2023-04-25T01:41:35;16.20;;;11.40;;
16979;SDS011;42288;52.182;21.156;2023-04-25T01:44:01;18.50;;;12.53;;
16979;SDS011;42288;52.182;21.156;2023-04-25T01:46:28;21.40;;;12.07;;
16979;SDS011;42288;52.182;21.156;2023-04-25T01:48:54;16.77;;;11.37;;
16979;SDS011;42288;52.182;21.156;2023-04-25T01:51:20;18.07;;;10.63;;
16979;SDS011;42288;52.182;21.156;2023-04-25T01:53:46;16.63;;;11.83;;
16979;SDS011;42288;52.182;21.156;2023-04-25T01:56:11;15.53;;;10.80;;
16979;SDS011;42288;52.182;21.156;2023-04-25T01:58:37;18.27;;;11.87;;
16979;SDS011;42288;52.182;21.156;2023-04-25T02:01:02;15.17;;;11.20;;
16979;SDS011;42288;52.182;21.156;2023-04-25T02:03:29;20.53;;;13.30;;
16979;SDS011;42288;52.182;21.156;2023-04-25T02:05:56;18.33;;;12.07;;
16979;SDS011;42288;52.182;21.156;2023-04-25T02:08:21;18.70;;;13.47;;
16979;SDS011;42288;52.182;21.156;2023-04-25T02:10:47;18.57;;;12.23;;
16979;SDS011;42288;52.182;21.156;2023-04-25T02:13:12;21.00;;;11.77;;
16979;SDS011;42288;52.182;21.156;2023-04-25T02:15:38;18.50;;;13.40;;
16979;SDS011;42288;52.182;21.156;2023-04-25T02:18:04;18.87;;;11.77;;
16979;SDS011;42288;52.182;21.156;2023-04-25T02:20:32;19.00;;;13.43;;
16979;SDS011;42288;52.182;21.156;2023-04-25T02:22:58;18.60;;;13.13;;
16979;SDS011;42288;52.182;21.156;2023-04-25T02:25:23;19.83;;;12.97;;
16979;SDS011;42288;52.182;21.156;2023-04-25T02:27:49;20.60;;;14.30;;
16979;SDS011;42288;52.182;21.156;2023-04-25T02:30:16;21.40;;;14.97;;
16979;SDS011;42288;52.182;21.156;2023-04-25T02:32:42;21.77;;;15.57;;
16979;SDS011;42288;52.182;21.156;2023-04-25T02:35:07;20.57;;;14.37;;
16979;SDS011;42288;52.182;21.156;2023-04-25T02:37:34;17.10;;;13.17;;
16979;SDS011;42288;52.182;21.156;2023-04-25T02:40:01;18.37;;;12.97;;
16979;SDS011;42288;52.182;21.156;2023-04-25T02:42:28;18.10;;;13.93;;
16979;SDS011;42288;52.182;21.156;2023-04-25T02:44:54;19.50;;;13.83;;
16979;SDS011;42288;52.182;21.156;2023-04-25T02:47:20;22.37;;;15.20;;
16979;SDS011;42288;52.182;21.156;2023-04-25T02:49:45;21.13;;;13.87;;
16979;SDS011;42288;52.182;21.156;2023-04-25T02:52:11;19.23;;;14.17;;
16979;SDS011;42288;52.182;21.156;2023-04-25T02:54:37;20.30;;;13.47;;
16979;SDS011;42288;52.182;21.156;2023-04-25T02:57:03;18.60;;;13.03;;
16979;SDS011;42288;52.182;21.156;2023-04-25T02:59:29;18.20;;;13.70;;
16979;SDS011;42288;52.182;21.156;2023-04-25T03:01:55;20.67;;;14.17;;
16979;SDS011;42288;52.182;21.156;2023-04-25T03:04:20;16.30;;;11.63;;
16979;SDS011;42288;52.182;21.156;2023-04-25T03:06:48;24.73;;;17.80;;
16979;SDS011;42288;52.182;21.156;2023-04-25T03:09:14;25.33;;;16.80;;
16979;SDS011;42288;52.182;21.156;2023-04-25T03:11:40;22.00;;;15.10;;
16979;SDS011;42288;52.182;21.156;2023-04-25T03:14:06;25.60;;;16.77;;
16979;SDS011;42288;52.182;21.156;2023-04-25T03:16:31;28.40;;;20.90;;
16979;SDS011;42288;52.182;21.156;2023-04-25T03:18:57;22.10;;;15.73;;
16979;SDS011;42288;52.182;21.156;2023-04-25T03:21:23;26.23;;;17.30;;
16979;SDS011;42288;52.182;21.156;2023-04-25T03:23:48;26.70;;;17.80;;
16979;SDS011;42288;52.182;21.156;2023-04-25T03:26:14;21.00;;;14.53;;
16979;SDS011;42288;52.182;21.156;2023-04-25T03:28:40;20.27;;;14.80;;
16979;SDS011;42288;52.182;21.156;2023-04-25T03:31:06;20.80;;;13.97;;
16979;SDS011;42288;52.182;21.156;2023-04-25T03:33:31;18.47;;;12.03;;
16979;SDS011;42288;52.182;21.156;2023-04-25T03:35:57;19.03;;;12.97;;
16979;SDS011;42288;52.182;21.156;2023-04-25T03:38:22;17.90;;;11.83;;
16979;SDS011;42288;52.182;21.156;2023-04-25T03:40:49;22.37;;;14.33;;
16979;SDS011;42288;52.182;21.156;2023-04-25T03:43:15;16.83;;;12.33;;
16979;SDS011;42288;52.182;21.156;2023-04-25T03:45:41;18.83;;;13.07;;
16979;SDS011;42288;52.182;21.156;2023-04-25T03:48:07;20.50;;;15.90;;
16979;SDS011;42288;52.182;21.156;2023-04-25T03:50:32;19.43;;;14.40;;
16979;SDS011;42288;52.182;21.156;2023-04-25T03:52:58;17.27;;;12.23;;
16979;SDS011;42288;52.182;21.156;2023-04-25T03:55:24;18.87;;;13.07;;
16979;SDS011;42288;52.182;21.156;2023-04-25T03:57:49;16.60;;;11.67;;
16979;SDS011;42288;52.182;21.156;2023-04-25T04:00:15;15.70;;;10.87;;
16979;SDS011;42288;52.182;21.156;2023-04-25T04:02:41;18.27;;;13.80;;
16979;SDS011;42288;52.182;21.156;2023-04-25T04:05:07;25.53;;;18.03;;
16979;SDS011;42288;52.182;21.156;2023-04-25T04:07:32;23.73;;;16.20;;
16979;SDS011;42288;52.182;21.156;2023-04-25T04:09:58;22.20;;;16.07;;
16979;SDS011;42288;52.182;21.156;2023-04-25T04:12:24;16.97;;;13.60;;
16979;SDS011;42288;52.182;21.156;2023-04-25T04:14:50;15.80;;;11.67;;
16979;SDS011;42288;52.182;21.156;2023-04-25T04:17:15;15.70;;;9.87;;
16979;SDS011;42288;52.182;21.156;2023-04-25T04:19:42;15.57;;;9.43;;
16979;SDS011;42288;52.182;21.156;2023-04-25T04:22:08;13.27;;;9.30;;
16979;SDS011;42288;52.182;21.156;2023-04-25T04:24:33;15.27;;;8.70;;
16979;SDS011;42288;52.182;21.156;2023-04-25T04:26:59;12.00;;;7.87;;
16979;SDS011;42288;52.182;21.156;2023-04-25T04:29:24;16.07;;;10.23;;
16979;SDS011;42288;52.182;21.156;2023-04-25T04:31:50;13.43;;;8.53;;
16979;SDS011;42288;52.182;21.156;2023-04-25T04:34:17;12.80;;;8.60;;
16979;SDS011;42288;52.182;21.156;2023-04-25T04:36:43;13.23;;;9.03;;
16979;SDS011;42288;52.182;21.156;2023-04-25T04:39:11;10.83;;;7.90;;
16979;SDS011;42288;52.182;21.156;2023-04-25T04:41:38;10.50;;;8.03;;
16979;SDS011;42288;52.182;21.156;2023-04-25T04:44:04;15.20;;;9.37;;
16979;SDS011;42288;52.182;21.156;2023-04-25T04:46:31;11.50;;;8.33;;
16979;SDS011;42288;52.182;21.156;2023-04-25T04:49:02;12.00;;;8.83;;
16979;SDS011;42288;52.182;21.156;2023-04-25T04:51:30;13.57;;;8.93;;
16979;SDS011;42288;52.182;21.156;2023-04-25T04:53:56;11.37;;;7.90;;
16979;SDS011;42288;52.182;21.156;2023-04-25T04:56:23;10.27;;;8.23;;
16979;SDS011;42288;52.182;21.156;2023-04-25T04:58:50;9.93;;;7.67;;
16979;SDS011;42288;52.182;21.156;2023-04-25T05:01:17;13.70;;;8.10;;
16979;SDS011;42288;52.182;21.156;2023-04-25T05:03:43;11.00;;;7.50;;
16979;SDS011;42288;52.182;21.156;2023-04-25T05:06:08;11.47;;;7.70;;
16979;SDS011;42288;52.182;21.156;2023-04-25T05:08:34;9.33;;;7.13;;
16979;SDS011;42288;52.182;21.156;2023-04-25T05:11:00;10.20;;;7.07;;
16979;SDS011;42288;52.182;21.156;2023-04-25T05:13:26;10.03;;;7.27;;
16979;SDS011;42288;52.182;21.156;2023-04-25T05:15:52;10.20;;;7.40;;
16979;SDS011;42288;52.182;21.156;2023-04-25T05:18:17;9.70;;;6.63;;
16979;SDS011;42288;52.182;21.156;2023-04-25T05:20:43;11.50;;;7.43;;
16979;SDS011;42288;52.182;21.156;2023-04-25T05:23:08;8.60;;;6.87;;
16979;SDS011;42288;52.182;21.156;2023-04-25T05:25:34;10.07;;;7.00;;
16979;SDS011;42288;52.182;21.156;2023-04-25T05:28:00;13.20;;;8.53;;
16979;SDS011;42288;52.182;21.156;2023-04-25T05:30:25;9.83;;;6.63;;
16979;SDS011;42288;52.182;21.156;2023-04-25T05:32:51;10.27;;;7.10;;
16979;SDS011;42288;52.182;21.156;2023-04-25T05:35:16;9.97;;;6.93;;
16979;SDS011;42288;52.182;21.156;2023-04-25T05:37:42;9.17;;;7.10;;
16979;SDS011;42288;52.182;21.156;2023-04-25T05:40:08;8.53;;;6.23;;
16979;SDS011;42288;52.182;21.156;2023-04-25T05:42:34;8.83;;;6.50;;
16979;SDS011;42288;52.182;21.156;2023-04-25T05:45:00;8.57;;;6.80;;
16979;SDS011;42288;52.182;21.156;2023-04-25T05:47:25;9.10;;;7.20;;
16979;SDS011;42288;52.182;21.156;2023-04-25T05:49:51;12.97;;;6.50;;
16979;SDS011;42288;52.182;21.156;2023-04-25T05:52:17;10.33;;;6.37;;
16979;SDS011;42288;52.182;21.156;2023-04-25T05:54:43;9.50;;;7.03;;
16979;SDS011;42288;52.182;21.156;2023-04-25T05:57:14;10.53;;;6.43;;
16979;SDS011;42288;52.182;21.156;2023-04-25T05:59:47;11.13;;;6.37;;
16979;SDS011;42288;52.182;21.156;2023-04-25T06:02:12;17.43;;;7.30;;
16979;SDS011;42288;52.182;21.156;2023-04-25T06:04:38;8.67;;;6.70;;
16979;SDS011;42288;52.182;21.156;2023-04-25T06:07:03;7.77;;;6.50;;
16979;SDS011;42288;52.182;21.156;2023-04-25T06:09:29;10.17;;;6.70;;
16979;SDS011;42288;52.182;21.156;2023-04-25T06:11:55;9.33;;;6.40;;
16979;SDS011;42288;52.182;21.156;2023-04-25T06:14:20;10.47;;;6.20;;
16979;SDS011;42288;52.182;21.156;2023-04-25T06:16:46;9.83;;;6.77;;
16979;SDS011;42288;52.182;21.156;2023-04-25T06:19:11;11.03;;;6.00;;
16979;SDS011;42288;52.182;21.156;2023-04-25T06:21:37;9.17;;;6.80;;
16979;SDS011;42288;52.182;21.156;2023-04-25T06:24:03;10.20;;;7.10;;
16979;SDS011;42288;52.182;21.156;2023-04-25T06:26:28;11.37;;;7.73;;
16979;SDS011;42288;52.182;21.156;2023-04-25T06:28:54;10.57;;;8.20;;
16979;SDS011;42288;52.182;21.156;2023-04-25T06:31:20;13.37;;;10.00;;
16979;SDS011;42288;52.182;21.156;2023-04-25T06:33:45;8.93;;;7.30;;
16979;SDS011;42288;52.182;21.156;2023-04-25T06:36:11;14.60;;;10.47;;
16979;SDS011;42288;52.182;21.156;2023-04-25T06:38:36;31.47;;;13.60;;
16979;SDS011;42288;52.182;21.156;2023-04-25T06:41:02;27.57;;;15.57;;
16979;SDS011;42288;52.182;21.156;2023-04-25T06:43:27;25.97;;;15.70;;
16979;SDS011;42288;52.182;21.156;2023-04-25T06:45:53;37.07;;;17.37;;
16979;SDS011;42288;52.182;21.156;2023-04-25T06:48:19;26.17;;;16.07;;
16979;SDS011;42288;52.182;21.156;2023-04-25T06:50:44;26.10;;;15.73;;
16979;SDS011;42288;52.182;21.156;2023-04-25T06:53:10;52.57;;;21.83;;
16979;SDS011;42288;52.182;21.156;2023-04-25T06:55:36;21.60;;;15.23;;
16979;SDS011;42288;52.182;21.156;2023-04-25T06:58:02;31.67;;;18.80;;
16979;SDS011;42288;52.182;21.156;2023-04-25T07:00:28;21.60;;;15.00;;
16979;SDS011;42288;52.182;21.156;2023-04-25T07:02:53;16.83;;;12.23;;
16979;SDS011;42288;52.182;21.156;2023-04-25T07:05:19;31.13;;;17.53;;
16979;SDS011;42288;52.182;21.156;2023-04-25T07:07:45;16.67;;;11.03;;
16979;SDS011;42288;52.182;21.156;2023-04-25T07:10:10;20.20;;;12.37;;
16979;SDS011;42288;52.182;21.156;2023-04-25T07:12:36;14.13;;;10.67;;
16979;SDS011;42288;52.182;21.156;2023-04-25T07:15:02;13.63;;;10.13;;
16979;SDS011;42288;52.182;21.156;2023-04-25T07:17:31;15.50;;;11.03;;
16979;SDS011;42288;52.182;21.156;2023-04-25T07:19:58;15.87;;;10.83;;
16979;SDS011;42288;52.182;21.156;2023-04-25T07:22:24;14.37;;;10.13;;
16979;SDS011;42288;52.182;21.156;2023-04-25T07:24:51;14.50;;;9.27;;
16979;SDS011;42288;52.182;21.156;2023-04-25T07:27:18;13.57;;;10.17;;
16979;SDS011;42288;52.182;21.156;2023-04-25T07:29:44;14.03;;;9.17;;
16979;SDS011;42288;52.182;21.156;2023-04-25T07:32:09;13.57;;;9.80;;
16979;SDS011;42288;52.182;21.156;2023-04-25T07:34:37;12.40;;;9.87;;
16979;SDS011;42288;52.182;21.156;2023-04-25T07:37:03;13.03;;;9.63;;
16979;SDS011;42288;52.182;21.156;2023-04-25T07:39:30;14.80;;;8.60;;
16979;SDS011;42288;52.182;21.156;2023-04-25T07:41:56;11.77;;;9.53;;
16979;SDS011;42288;52.182;21.156;2023-04-25T07:44:23;12.93;;;9.80;;
16979;SDS011;42288;52.182;21.156;2023-04-25T07:46:49;12.97;;;10.60;;
16979;SDS011;42288;52.182;21.156;2023-04-25T07:49:15;12.87;;;10.10;;
16979;SDS011;42288;52.182;21.156;2023-04-25T07:51:40;14.23;;;10.47;;
16979;SDS011;42288;52.182;21.156;2023-04-25T07:54:08;15.13;;;10.93;;
16979;SDS011;42288;52.182;21.156;2023-04-25T07:56:38;13.30;;;9.83;;
16979;SDS011;42288;52.182;21.156;2023-04-25T07:59:04;13.83;;;10.10;;
16979;SDS011;42288;52.182;21.156;2023-04-25T08:01:30;11.67;;;9.20;;
16979;SDS011;42288;52.182;21.156;2023-04-25T08:03:55;12.43;;;9.10;;
16979;SDS011;42288;52.182;21.156;2023-04-25T08:06:21;11.30;;;9.17;;
16979;SDS011;42288;52.182;21.156;2023-04-25T08:08:47;12.07;;;10.13;;
16979;SDS011;42288;52.182;21.156;2023-04-25T08:11:12;11.60;;;9.00;;
16979;SDS011;42288;52.182;21.156;2023-04-25T08:13:38;12.50;;;8.30;;
16979;SDS011;42288;52.182;21.156;2023-04-25T08:16:03;8.80;;;7.40;;
16979;SDS011;42288;52.182;21.156;2023-04-25T08:18:29;8.97;;;7.40;;
16979;SDS011;42288;52.182;21.156;2023-04-25T08:20:55;10.73;;;7.63;;
16979;SDS011;42288;52.182;21.156;2023-04-25T08:23:21;8.00;;;7.07;;
16979;SDS011;42288;52.182;21.156;2023-04-25T08:25:47;9.77;;;6.57;;
16979;SDS011;42288;52.182;21.156;2023-04-25T08:28:13;8.17;;;6.17;;
16979;SDS011;42288;52.182;21.156;2023-04-25T08:30:39;9.60;;;6.83;;
16979;SDS011;42288;52.182;21.156;2023-04-25T08:33:05;7.20;;;6.10;;
16979;SDS011;42288;52.182;21.156;2023-04-25T08:35:30;7.60;;;5.70;;
16979;SDS011;42288;52.182;21.156;2023-04-25T08:37:57;8.97;;;5.87;;
16979;SDS011;42288;52.182;21.156;2023-04-25T08:40:23;8.13;;;5.90;;
16979;SDS011;42288;52.182;21.156;2023-04-25T08:42:55;10.40;;;6.43;;
16979;SDS011;42288;52.182;21.156;2023-04-25T08:45:24;9.40;;;6.40;;
16979;SDS011;42288;52.182;21.156;2023-04-25T08:47:53;12.87;;;7.93;;
16979;SDS011;42288;52.182;21.156;2023-04-25T08:50:22;11.70;;;9.00;;
16979;SDS011;42288;52.182;21.156;2023-04-25T08:52:48;12.20;;;9.90;;
16979;SDS011;42288;52.182;21.156;2023-04-25T08:55:17;7.80;;;6.43;;
16979;SDS011;42288;52.182;21.156;2023-04-25T08:57:44;8.00;;;5.40;;
16979;SDS011;42288;52.182;21.156;2023-04-25T09:00:10;7.33;;;6.30;;
16979;SDS011;42288;52.182;21.156;2023-04-25T09:02:38;7.40;;;5.70;;
16979;SDS011;42288;52.182;21.156;2023-04-25T09:05:05;9.93;;;5.67;;
16979;SDS011;42288;52.182;21.156;2023-04-25T09:07:32;6.03;;;4.90;;
16979;SDS011;42288;52.182;21.156;2023-04-25T09:09:57;6.10;;;4.80;;
16979;SDS011;42288;52.182;21.156;2023-04-25T09:12:26;7.97;;;4.90;;
16979;SDS011;42288;52.182;21.156;2023-04-25T09:15:04;6.77;;;4.73;;
16979;SDS011;42288;52.182;21.156;2023-04-25T09:17:34;7.23;;;4.67;;
16979;SDS011;42288;52.182;21.156;2023-04-25T09:20:06;9.97;;;5.97;;
16979;SDS011;42288;52.182;21.156;2023-04-25T09:22:34;7.83;;;5.33;;
16979;SDS011;42288;52.182;21.156;2023-04-25T09:25:02;9.97;;;6.77;;
16979;SDS011;42288;52.182;21.156;2023-04-25T09:27:34;8.13;;;5.70;;
16979;SDS011;42288;52.182;21.156;2023-04-25T09:30:01;7.03;;;6.07;;
16979;SDS011;42288;52.182;21.156;2023-04-25T09:32:27;7.47;;;6.30;;
16979;SDS011;42288;52.182;21.156;2023-04-25T09:34:54;14.20;;;6.60;;
16979;SDS011;42288;52.182;21.156;2023-04-25T09:37:23;9.17;;;7.10;;
16979;SDS011;42288;52.182;21.156;2023-04-25T09:39:50;9.37;;;6.73;;
16979;SDS011;42288;52.182;21.156;2023-04-25T09:42:17;10.90;;;6.57;;
16979;SDS011;42288;52.182;21.156;2023-04-25T09:44:46;7.70;;;6.63;;
16979;SDS011;42288;52.182;21.156;2023-04-25T09:47:15;13.30;;;6.40;;
16979;SDS011;42288;52.182;21.156;2023-04-25T09:49:46;8.77;;;6.67;;
16979;SDS011;42288;52.182;21.156;2023-04-25T09:52:15;6.73;;;5.80;;
16979;SDS011;42288;52.182;21.156;2023-04-25T09:54:42;6.90;;;5.73;;
16979;SDS011;42288;52.182;21.156;2023-04-25T09:57:10;8.90;;;7.33;;
16979;SDS011;42288;52.182;21.156;2023-04-25T09:59:38;10.50;;;8.00;;
16979;SDS011;42288;52.182;21.156;2023-04-25T10:02:09;9.00;;;7.40;;
16979;SDS011;42288;52.182;21.156;2023-04-25T10:04:36;11.50;;;8.53;;
16979;SDS011;42288;52.182;21.156;2023-04-25T10:07:03;15.37;;;9.20;;
16979;SDS011;42288;52.182;21.156;2023-04-25T10:09:32;11.80;;;8.47;;
16979;SDS011;42288;52.182;21.156;2023-04-25T10:11:59;9.57;;;8.50;;
16979;SDS011;42288;52.182;21.156;2023-04-25T10:14:25;9.17;;;7.70;;
16979;SDS011;42288;52.182;21.156;2023-04-25T10:16:51;11.70;;;9.50;;
16979;SDS011;42288;52.182;21.156;2023-04-25T10:19:22;11.10;;;8.70;;
16979;SDS011;42288;52.182;21.156;2023-04-25T10:21:50;11.10;;;9.10;;
16979;SDS011;42288;52.182;21.156;2023-04-25T10:24:17;11.30;;;8.93;;
16979;SDS011;42288;52.182;21.156;2023-04-25T10:26:45;10.73;;;9.17;;
16979;SDS011;42288;52.182;21.156;2023-04-25T10:29:12;11.77;;;9.53;;
16979;SDS011;42288;52.182;21.156;2023-04-25T10:31:46;11.53;;;9.03;;
16979;SDS011;42288;52.182;21.156;2023-04-25T10:34:15;12.13;;;9.97;;
16979;SDS011;42288;52.182;21.156;2023-04-25T10:36:41;11.17;;;8.77;;
16979;SDS011;42288;52.182;21.156;2023-04-25T10:39:07;13.10;;;10.00;;
16979;SDS011;42288;52.182;21.156;2023-04-25T10:41:57;13.17;;;10.20;;
16979;SDS011;42288;52.182;21.156;2023-04-25T10:44:23;12.10;;;8.93;;
16979;SDS011;42288;52.182;21.156;2023-04-25T10:46:51;14.83;;;10.77;;
16979;SDS011;42288;52.182;21.156;2023-04-25T10:54:42;15.17;;;10.63;;
16979;SDS011;42288;52.182;21.156;2023-04-25T11:00:14;15.60;;;10.77;;
16979;SDS011;42288;52.182;21.156;2023-04-25T11:02:41;14.97;;;11.07;;
16979;SDS011;42288;52.182;21.156;2023-04-25T11:10:17;14.40;;;12.80;;
16979;SDS011;42288;52.182;21.156;2023-04-25T11:12:42;14.40;;;12.10;;
16979;SDS011;42288;52.182;21.156;2023-04-25T11:15:09;15.50;;;12.53;;
16979;SDS011;42288;52.182;21.156;2023-04-25T11:17:35;13.67;;;11.47;;
16979;SDS011;42288;52.182;21.156;2023-04-25T11:20:01;12.37;;;10.73;;
16979;SDS011;42288;52.182;21.156;2023-04-25T11:22:31;12.17;;;10.80;;
16979;SDS011;42288;52.182;21.156;2023-04-25T11:24:58;12.33;;;11.03;;
16979;SDS011;42288;52.182;21.156;2023-04-25T11:27:30;12.27;;;10.93;;
16979;SDS011;42288;52.182;21.156;2023-04-25T11:29:55;13.80;;;11.73;;
16979;SDS011;42288;52.182;21.156;2023-04-25T11:32:21;12.57;;;11.27;;
16979;SDS011;42288;52.182;21.156;2023-04-25T11:34:46;15.23;;;11.87;;
16979;SDS011;42288;52.182;21.156;2023-04-25T11:37:12;15.70;;;14.10;;
16979;SDS011;42288;52.182;21.156;2023-04-25T11:39:42;12.73;;;11.00;;
16979;SDS011;42288;52.182;21.156;2023-04-25T11:42:09;13.50;;;10.60;;
16979;SDS011;42288;52.182;21.156;2023-04-25T11:44:34;13.70;;;12.23;;
16979;SDS011;42288;52.182;21.156;2023-04-25T11:47:00;11.73;;;10.30;;
16979;SDS011;42288;52.182;21.156;2023-04-25T11:49:29;12.60;;;10.90;;
16979;SDS011;42288;52.182;21.156;2023-04-25T11:51:56;10.47;;;8.97;;
16979;SDS011;42288;52.182;21.156;2023-04-25T11:54:22;12.27;;;9.57;;
16979;SDS011;42288;52.182;21.156;2023-04-25T11:56:48;11.57;;;8.77;;
16979;SDS011;42288;52.182;21.156;2023-04-25T11:59:13;10.87;;;9.23;;
16979;SDS011;42288;52.182;21.156;2023-04-25T12:01:47;9.77;;;8.17;;
16979;SDS011;42288;52.182;21.156;2023-04-25T12:04:21;9.87;;;7.97;;
16979;SDS011;42288;52.182;21.156;2023-04-25T12:06:49;11.33;;;8.70;;
16979;SDS011;42288;52.182;21.156;2023-04-25T12:09:18;8.57;;;7.40;;
16979;SDS011;42288;52.182;21.156;2023-04-25T12:11:55;9.97;;;6.97;;
16979;SDS011;42288;52.182;21.156;2023-04-25T12:14:26;9.20;;;6.90;;
16979;SDS011;42288;52.182;21.156;2023-04-25T12:16:57;8.20;;;6.70;;
16979;SDS011;42288;52.182;21.156;2023-04-25T12:19:24;7.73;;;6.93;;
16979;SDS011;42288;52.182;21.156;2023-04-25T12:21:50;12.47;;;7.57;;
16979;SDS011;42288;52.182;21.156;2023-04-25T12:24:17;7.97;;;6.67;;
16979;SDS011;42288;52.182;21.156;2023-04-25T12:29:18;7.47;;;6.67;;
16979;SDS011;42288;52.182;21.156;2023-04-25T12:31:45;7.43;;;6.73;;
16979;SDS011;42288;52.182;21.156;2023-04-25T12:34:11;9.43;;;7.43;;
16979;SDS011;42288;52.182;21.156;2023-04-25T12:36:37;8.73;;;7.30;;
16979;SDS011;42288;52.182;21.156;2023-04-25T12:39:03;7.37;;;6.67;;
16979;SDS011;42288;52.182;21.156;2023-04-25T12:41:29;9.00;;;7.33;;
16979;SDS011;42288;52.182;21.156;2023-04-25T12:43:55;10.30;;;6.80;;
16979;SDS011;42288;52.182;21.156;2023-04-25T12:46:20;9.07;;;6.40;;
16979;SDS011;42288;52.182;21.156;2023-04-25T12:48:47;11.57;;;7.63;;
16979;SDS011;42288;52.182;21.156;2023-04-25T12:51:13;9.00;;;6.33;;
16979;SDS011;42288;52.182;21.156;2023-04-25T12:53:38;7.77;;;5.77;;
16979;SDS011;42288;52.182;21.156;2023-04-25T12:56:05;6.73;;;6.03;;
16979;SDS011;42288;52.182;21.156;2023-04-25T12:58:32;9.53;;;6.07;;
16979;SDS011;42288;52.182;21.156;2023-04-25T13:00:58;7.90;;;5.77;;
16979;SDS011;42288;52.182;21.156;2023-04-25T13:03:24;6.93;;;5.90;;
16979;SDS011;42288;52.182;21.156;2023-04-25T13:05:50;8.20;;;4.93;;
16979;SDS011;42288;52.182;21.156;2023-04-25T13:08:17;6.73;;;5.77;;
16979;SDS011;42288;52.182;21.156;2023-04-25T13:10:43;8.80;;;5.50;;
16979;SDS011;42288;52.182;21.156;2023-04-25T13:13:09;6.07;;;5.30;;
16979;SDS011;42288;52.182;21.156;2023-04-25T13:15:35;9.20;;;5.30;;
16979;SDS011;42288;52.182;21.156;2023-04-25T13:18:01;5.87;;;4.77;;
16979;SDS011;42288;52.182;21.156;2023-04-25T13:20:28;6.53;;;4.77;;
16979;SDS011;42288;52.182;21.156;2023-04-25T13:22:53;5.40;;;4.90;;
16979;SDS011;42288;52.182;21.156;2023-04-25T13:25:20;6.40;;;4.33;;
16979;SDS011;42288;52.182;21.156;2023-04-25T13:27:46;5.53;;;4.00;;
16979;SDS011;42288;52.182;21.156;2023-04-25T13:30:12;5.93;;;4.60;;
16979;SDS011;42288;52.182;21.156;2023-04-25T13:32:38;5.73;;;4.43;;
16979;SDS011;42288;52.182;21.156;2023-04-25T13:35:05;7.00;;;4.33;;
16979;SDS011;42288;52.182;21.156;2023-04-25T13:37:32;5.73;;;4.13;;
16979;SDS011;42288;52.182;21.156;2023-04-25T13:39:59;6.67;;;4.07;;
16979;SDS011;42288;52.182;21.156;2023-04-25T13:42:33;5.83;;;4.30;;
16979;SDS011;42288;52.182;21.156;2023-04-25T13:44:59;5.27;;;4.17;;
16979;SDS011;42288;52.182;21.156;2023-04-25T13:47:25;6.83;;;3.80;;
16979;SDS011;42288;52.182;21.156;2023-04-25T13:49:51;4.27;;;3.87;;
16979;SDS011;42288;52.182;21.156;2023-04-25T13:52:17;5.33;;;3.87;;
16979;SDS011;42288;52.182;21.156;2023-04-25T13:54:42;8.17;;;4.83;;
16979;SDS011;42288;52.182;21.156;2023-04-25T13:57:08;6.17;;;3.53;;
16979;SDS011;42288;52.182;21.156;2023-04-25T13:59:36;5.23;;;3.33;;
16979;SDS011;42288;52.182;21.156;2023-04-25T14:02:02;4.93;;;2.87;;
16979;SDS011;42288;52.182;21.156;2023-04-25T14:04:27;8.17;;;3.00;;
16979;SDS011;42288;52.182;21.156;2023-04-25T14:06:53;5.00;;;2.70;;
16979;SDS011;42288;52.182;21.156;2023-04-25T14:09:19;2.97;;;2.57;;
16979;SDS011;42288;52.182;21.156;2023-04-25T14:11:47;3.40;;;2.57;;
16979;SDS011;42288;52.182;21.156;2023-04-25T14:14:12;3.20;;;2.77;;
16979;SDS011;42288;52.182;21.156;2023-04-25T14:16:41;4.90;;;3.27;;
16979;SDS011;42288;52.182;21.156;2023-04-25T14:19:06;5.57;;;3.07;;
16979;SDS011;42288;52.182;21.156;2023-04-25T14:21:32;4.83;;;3.30;;
16979;SDS011;42288;52.182;21.156;2023-04-25T14:23:57;5.83;;;3.67;;
16979;SDS011;42288;52.182;21.156;2023-04-25T14:26:23;5.53;;;3.50;;
16979;SDS011;42288;52.182;21.156;2023-04-25T14:28:49;5.40;;;3.27;;
16979;SDS011;42288;52.182;21.156;2023-04-25T14:31:16;6.23;;;4.47;;
16979;SDS011;42288;52.182;21.156;2023-04-25T14:33:41;5.50;;;3.53;;